Time;durP1;ratioP1;P1;durP2;ratioP2;P2;SDS_P1;SDS_P2;PMS_P1;PMS_P2;Temp;Humidity;BMP_temperature;BMP_pressure;BME280_temperature;BME280_humidity;BME280_pressure;Samples;Min_cycle;Max_cycle;Signal;HPM_P1;HPM_P2
2023/06/23 00:00:23;;;;;;;23.90;11.90;;;;;;;19.31;100.00;98786.60;136082;1275;22622;-62
2023/06/23 00:03:46;;;;;;;26.20;12.00;;;;;;;19.25;100.00;98791.28;136047;1275;22521;-63
2023/06/23 00:06:48;;;;;;;25.70;11.80;;;;;;;19.29;100.00;98796.70;136067;1275;22554;-62
2023/06/23 00:09:50;;;;;;;25.30;11.50;;;;;;;19.20;100.00;98802.93;136061;1275;22540;-61
2023/06/23 00:12:53;;;;;;;24.50;11.70;;;;;;;19.16;100.00;98796.35;136121;1275;25465;-62
2023/06/23 00:15:57;;;;;;;26.70;11.20;;;;;;;19.12;100.00;98801.88;136045;1275;24326;-62
2023/06/23 00:18:59;;;;;;;24.10;11.60;;;;;;;19.16;100.00;98809.67;136024;1266;22535;-62
2023/06/23 00:22:02;;;;;;;26.50;10.90;;;;;;;19.17;100.00;98813.30;136102;1257;22532;-62
2023/06/23 00:25:05;;;;;;;25.00;12.30;;;;;;;19.24;100.00;98806.41;136100;1275;22531;-61
2023/06/23 00:28:07;;;;;;;24.60;12.50;;;;;;;19.25;100.00;98801.36;136021;1275;22514;-64
2023/06/23 00:31:10;;;;;;;27.70;12.60;;;;;;;19.21;100.00;98791.67;135972;1275;22547;-62
2023/06/23 00:34:13;;;;;;;24.40;11.40;;;;;;;19.18;100.00;98777.90;136075;1275;25281;-62
2023/06/23 00:37:15;;;;;;;24.10;11.40;;;;;;;19.30;100.00;98770.38;136141;1275;22649;-62
2023/06/23 00:40:17;;;;;;;25.40;12.00;;;;;;;19.38;100.00;98760.55;136092;1275;24352;-62
2023/06/23 00:43:20;;;;;;;24.70;12.40;;;;;;;19.33;100.00;98758.67;136051;1275;22540;-62
2023/06/23 00:46:24;;;;;;;26.00;13.20;;;;;;;19.34;100.00;98752.44;136041;1275;22546;-62
2023/06/23 00:49:26;;;;;;;26.70;11.00;;;;;;;19.39;100.00;98749.85;136090;1275;22615;-64
2023/06/23 00:52:28;;;;;;;26.10;11.80;;;;;;;19.33;100.00;98747.01;136069;1275;24310;-62
2023/06/23 00:55:31;;;;;;;25.30;11.10;;;;;;;19.29;100.00;98737.46;136040;1275;22550;-62
2023/06/23 00:58:34;;;;;;;26.10;11.60;;;;;;;19.24;100.00;98733.98;136052;1275;22990;-62
2023/06/23 01:01:37;;;;;;;25.40;11.90;;;;;;;19.11;100.00;98740.50;136048;1275;25223;-61
2023/06/23 01:04:40;;;;;;;23.00;10.30;;;;;;;18.93;100.00;98750.90;136060;1275;22524;-62
2023/06/23 01:07:43;;;;;;;26.80;11.10;;;;;;;18.75;100.00;98756.54;136079;1275;22666;-61
2023/06/23 01:10:45;;;;;;;27.50;10.40;;;;;;;18.62;100.00;98751.06;135947;1275;22533;-63
2023/06/23 01:13:47;;;;;;;28.80;11.40;;;;;;;18.68;100.00;98743.89;135930;1266;22565;-63
2023/06/23 01:16:50;;;;;;;28.80;11.20;;;;;;;18.75;100.00;98736.69;136054;1275;22632;-65
2023/06/23 01:19:52;;;;;;;24.60;10.70;;;;;;;18.77;100.00;98735.45;135961;1258;22641;-62
2023/06/23 01:22:55;;;;;;;25.10;11.50;;;;;;;18.93;100.00;98734.98;136053;1275;22625;-65
2023/06/23 01:25:57;;;;;;;24.10;11.40;;;;;;;19.11;100.00;98732.92;136064;1275;22554;-62
2023/06/23 01:29:00;;;;;;;23.20;10.30;;;;;;;19.14;100.00;98739.50;136063;1275;22535;-62
2023/06/23 01:32:02;;;;;;;26.30;10.90;;;;;;;19.03;100.00;98741.31;136047;1275;22525;-63
2023/06/23 01:35:04;;;;;;;26.20;10.90;;;;;;;18.97;100.00;98730.83;136084;1275;22530;-63
2023/06/23 01:38:07;;;;;;;27.20;11.30;;;;;;;18.96;100.00;98722.47;136042;1273;22531;-62
2023/06/23 01:41:09;;;;;;;26.30;11.30;;;;;;;19.06;100.00;98710.58;136060;1276;22602;-62
2023/06/23 01:44:14;;;;;;;25.30;12.20;;;;;;;19.00;100.00;98694.91;136010;1276;22543;-65
2023/06/23 01:47:16;;;;;;;23.80;10.70;;;;;;;18.98;100.00;98679.05;136042;1275;22531;-62
2023/06/23 01:50:19;;;;;;;24.30;10.40;;;;;;;19.02;100.00;98669.94;136088;1262;22527;-62
2023/06/23 01:53:22;;;;;;;22.30;9.70;;;;;;;18.99;100.00;98662.64;136062;1258;22548;-62
2023/06/23 01:56:24;;;;;;;24.70;10.20;;;;;;;19.05;100.00;98665.95;136022;1276;22997;-62
2023/06/23 01:59:27;;;;;;;24.60;10.80;;;;;;;19.16;100.00;98666.45;136023;1275;22641;-62
2023/06/23 02:02:29;;;;;;;26.20;11.50;;;;;;;19.22;100.00;98659.10;136044;1276;24220;-62
2023/06/23 02:05:32;;;;;;;25.20;10.40;;;;;;;19.28;100.00;98645.12;136082;1276;22637;-61
2023/06/23 02:08:34;;;;;;;25.00;10.70;;;;;;;19.23;100.00;98638.83;136061;1276;25203;-62
2023/06/23 02:11:37;;;;;;;24.10;10.40;;;;;;;19.22;100.00;98638.76;136023;1276;22536;-62
2023/06/23 02:14:39;;;;;;;24.10;10.00;;;;;;;19.27;100.00;98632.09;136073;1276;22549;-63
2023/06/23 02:17:41;;;;;;;26.80;9.90;;;;;;;19.28;100.00;98625.44;136007;1276;24239;-63
2023/06/23 02:20:44;;;;;;;25.90;10.20;;;;;;;19.25;100.00;98615.11;136078;1276;22559;-60
2023/06/23 02:23:46;;;;;;;23.70;9.20;;;;;;;19.22;100.00;98605.23;136040;1276;22630;-62
2023/06/23 02:26:49;;;;;;;21.10;8.00;;;;;;;19.24;100.00;98602.74;136063;1253;23143;-61
2023/06/23 02:29:51;;;;;;;23.50;9.30;;;;;;;19.26;100.00;98612.33;136037;1253;22558;-62
2023/06/23 02:32:56;;;;;;;23.40;8.70;;;;;;;19.38;100.00;98618.73;136029;1275;22538;-62
2023/06/23 02:35:58;;;;;;;20.40;8.60;;;;;;;19.51;100.00;98623.67;135960;1275;22542;-62
2023/06/23 02:39:01;;;;;;;26.30;8.60;;;;;;;19.60;99.63;98625.91;136058;1275;22524;-62
2023/06/23 02:42:03;;;;;;;23.70;9.20;;;;;;;19.66;99.17;98625.65;136059;1275;22548;-62
2023/06/23 02:45:05;;;;;;;22.60;9.10;;;;;;;19.72;98.61;98633.52;136065;1275;25256;-62
2023/06/23 02:48:08;;;;;;;25.20;9.20;;;;;;;19.68;98.18;98639.04;136068;1275;22550;-63
2023/06/23 02:51:10;;;;;;;23.60;9.70;;;;;;;19.48;99.51;98648.77;136084;1275;22632;-64
2023/06/23 02:54:13;;;;;;;25.10;9.60;;;;;;;19.37;100.00;98642.88;136071;1275;22531;-65
2023/06/23 02:57:15;;;;;;;23.40;10.00;;;;;;;19.33;100.00;98648.62;136060;1275;22575;-66
2023/06/23 03:00:22;;;;;;;22.30;9.40;;;;;;;19.28;100.00;98652.13;136077;1257;22525;-66
2023/06/23 03:03:25;;;;;;;23.20;10.00;;;;;;;19.26;100.00;98656.67;136079;1275;22562;-63
2023/06/23 03:06:27;;;;;;;25.70;10.40;;;;;;;19.20;100.00;98663.04;136093;1275;22633;-64
2023/06/23 03:09:29;;;;;;;23.20;9.30;;;;;;;19.31;100.00;98671.15;136092;1257;22767;-64
2023/06/23 03:12:32;;;;;;;25.20;9.60;;;;;;;19.44;100.00;98674.52;136096;1275;22536;-63
2023/06/23 03:15:36;;;;;;;22.20;9.10;;;;;;;19.57;100.00;98682.61;136076;1275;22527;-64
2023/06/23 03:18:38;;;;;;;24.10;9.40;;;;;;;19.81;100.00;98688.23;136088;1275;22690;-64
2023/06/23 03:21:41;;;;;;;22.70;9.70;;;;;;;20.03;100.00;98698.75;136096;1254;24327;-63
2023/06/23 03:24:43;;;;;;;23.50;9.50;;;;;;;20.18;100.00;98696.88;136094;1275;22535;-63
2023/06/23 03:27:46;;;;;;;23.80;9.80;;;;;;;20.34;100.00;98691.66;136063;1275;22538;-61
2023/06/23 03:30:49;;;;;;;24.70;9.50;;;;;;;20.40;100.00;98692.69;136035;1273;22550;-65
2023/06/23 03:33:51;;;;;;;24.50;9.70;;;;;;;20.53;100.00;98701.59;136033;1273;22547;-62
2023/06/23 03:36:56;;;;;;;23.00;8.80;;;;;;;20.71;99.87;98706.86;136055;1264;22534;-62
2023/06/23 03:39:58;;;;;;;22.50;8.10;;;;;;;20.73;100.00;98697.73;136051;1257;22591;-61
2023/06/23 03:43:01;;;;;;;22.80;8.80;;;;;;;20.81;100.00;98693.92;136021;1275;22547;-62
2023/06/23 03:46:03;;;;;;;23.30;9.80;;;;;;;20.96;100.00;98686.60;135981;1275;24253;-61
2023/06/23 03:49:06;;;;;;;23.50;9.50;;;;;;;21.16;100.00;98690.42;136040;1275;22564;-61
2023/06/23 03:52:08;;;;;;;21.30;8.80;;;;;;;21.27;100.00;98683.27;136069;1275;22547;-62
2023/06/23 03:55:11;;;;;;;25.20;8.60;;;;;;;21.41;99.90;98669.40;136028;1275;22523;-60
2023/06/23 03:58:13;;;;;;;23.00;8.50;;;;;;;21.54;99.99;98656.24;136054;1254;24225;-61
2023/06/23 04:01:16;;;;;;;21.50;8.20;;;;;;;21.72;97.81;98645.56;136002;1275;22540;-60
2023/06/23 04:04:18;;;;;;;21.30;8.10;;;;;;;21.88;96.14;98638.52;135998;1270;25398;-64
2023/06/23 04:07:21;;;;;;;21.50;8.10;;;;;;;22.13;94.14;98633.61;136063;1256;22598;-64
2023/06/23 04:10:23;;;;;;;22.50;7.70;;;;;;;22.29;91.83;98621.40;136050;1275;22545;-64
2023/06/23 04:13:25;;;;;;;22.10;7.90;;;;;;;22.45;89.70;98621.31;136079;1275;22534;-63
2023/06/23 04:16:28;;;;;;;20.90;8.20;;;;;;;22.58;88.95;98625.68;136054;1275;22536;-66
2023/06/23 04:19:30;;;;;;;23.60;7.90;;;;;;;22.74;89.14;98628.27;136079;1275;22535;-64
2023/06/23 04:22:32;;;;;;;21.00;8.00;;;;;;;22.94;86.93;98629.97;136070;1275;22527;-64
2023/06/23 04:25:35;;;;;;;22.00;7.50;;;;;;;23.06;85.77;98626.77;136054;1269;22523;-64
2023/06/23 04:28:37;;;;;;;23.30;7.90;;;;;;;23.15;84.67;98620.02;136037;1275;22546;-64
2023/06/23 04:31:40;;;;;;;22.20;7.40;;;;;;;23.25;83.83;98619.90;136052;1275;22535;-64
2023/06/23 04:34:43;;;;;;;22.50;8.10;;;;;;;23.38;82.57;98613.80;136031;1275;22542;-64
2023/06/23 04:37:45;;;;;;;20.30;7.60;;;;;;;23.42;81.92;98609.38;136039;1257;22757;-63
2023/06/23 04:40:47;;;;;;;22.70;7.80;;;;;;;23.60;81.00;98624.98;135724;1275;22569;-65
2023/06/23 04:43:50;;;;;;;23.10;7.90;;;;;;;23.78;80.61;98628.54;135724;1267;23029;-65
2023/06/23 04:46:52;;;;;;;21.40;7.60;;;;;;;23.93;79.47;98620.00;136126;1275;22632;-63
2023/06/23 04:49:55;;;;;;;20.00;7.50;;;;;;;23.99;79.28;98614.85;135967;1275;25452;-65
2023/06/23 04:52:57;;;;;;;21.30;7.50;;;;;;;24.10;77.33;98599.09;136060;1275;24289;-65
2023/06/23 04:56:00;;;;;;;23.50;7.60;;;;;;;24.18;77.20;98598.98;136078;1275;22534;-65
2023/06/23 04:59:02;;;;;;;20.70;7.20;;;;;;;24.41;76.47;98609.45;136076;1275;22567;-64
2023/06/23 05:02:04;;;;;;;20.50;7.80;;;;;;;24.50;75.78;98610.17;136064;1275;22519;-63
2023/06/23 05:05:07;;;;;;;22.20;7.50;;;;;;;24.60;74.72;98603.99;136074;1275;22647;-64
2023/06/23 05:08:09;;;;;;;23.00;7.90;;;;;;;24.65;74.51;98589.52;136061;1275;24220;-64
2023/06/23 05:11:11;;;;;;;23.90;7.80;;;;;;;24.77;73.50;98582.81;135974;1275;22535;-65
2023/06/23 05:14:14;;;;;;;20.50;7.60;;;;;;;24.74;73.17;98584.40;136003;1273;22522;-63
2023/06/23 05:17:16;;;;;;;23.50;8.20;;;;;;;24.77;73.42;98591.77;136030;1275;22541;-62
2023/06/23 05:20:19;;;;;;;20.20;7.60;;;;;;;24.73;73.45;98599.44;136134;1275;22523;-62
2023/06/23 05:23:21;;;;;;;23.50;8.30;;;;;;;24.65;73.28;98604.52;136095;1275;22545;-63
2023/06/23 05:26:24;;;;;;;21.00;8.10;;;;;;;24.64;73.31;98592.64;136019;1275;25456;-62
2023/06/23 05:29:27;;;;;;;22.30;7.80;;;;;;;24.66;74.19;98598.96;136005;1275;22550;-63
2023/06/23 05:32:29;;;;;;;22.70;8.40;;;;;;;24.65;73.18;98592.67;136047;1275;24076;-63
2023/06/23 05:35:32;;;;;;;21.90;8.00;;;;;;;24.54;73.48;98578.27;136095;1275;22554;-64
2023/06/23 05:38:34;;;;;;;20.10;7.90;;;;;;;24.40;73.82;98565.13;136071;1257;24259;-62
2023/06/23 05:41:37;;;;;;;21.10;8.40;;;;;;;24.33;74.11;98564.38;136020;1275;22531;-62
2023/06/23 05:44:39;;;;;;;24.10;8.80;;;;;;;24.21;74.37;98567.16;136049;1275;22555;-62
2023/06/23 05:47:42;;;;;;;23.60;8.80;;;;;;;24.18;74.51;98565.20;136060;1276;25453;-63
2023/06/23 05:50:44;;;;;;;23.40;8.80;;;;;;;24.13;74.85;98609.51;136086;1257;22534;-63
2023/06/23 05:53:47;;;;;;;32.60;10.80;;;;;;;23.80;78.41;98829.46;136059;1276;22548;-65
2023/06/23 05:56:49;;;;;;;38.90;13.00;;;;;;;21.81;100.00;98968.69;136077;1276;22531;-66
2023/06/23 06:13:26;;;;;;;23.50;7.10;;;;;;;-98.11;19.20;19924.62;129107;1311;1544876;-73
2023/06/23 06:16:33;;;;;;;24.70;8.10;;;;;;;-128.00;-1.00;-1.00;124681;1293;8367580;-74
2023/06/23 06:19:35;;;;;;;20.30;7.80;;;;;;;-128.00;-1.00;-1.00;131506;1286;1002394;-72
2023/06/23 06:22:38;;;;;;;20.90;7.60;;;;;;;-128.00;-1.00;-1.00;131503;1286;1002137;-71
2023/06/23 06:25:43;;;;;;;25.40;9.20;;;;;;;-128.00;-1.00;-1.00;131495;1286;1002414;-69
2023/06/23 06:28:46;;;;;;;22.30;9.10;;;;;;;-128.00;-1.00;-1.00;131491;1286;1002521;-70
2023/06/23 06:31:49;;;;;;;24.10;9.50;;;;;;;-128.00;-1.00;-1.00;131494;1286;1002763;-70
2023/06/23 06:34:51;;;;;;;25.40;11.00;;;;;;;-128.00;-1.00;-1.00;131487;1286;1004461;-72
2023/06/23 06:37:56;;;;;;;25.80;11.10;;;;;;;-128.00;-1.00;-1.00;131490;1286;1002803;-70
2023/06/23 06:40:59;;;;;;;25.80;9.20;;;;;;;-128.00;-1.00;-1.00;131495;1286;1002446;-70
2023/06/23 06:44:02;;;;;;;22.60;8.60;;;;;;;-128.00;-1.00;-1.00;131447;1286;1002824;-70
2023/06/23 06:47:05;;;;;;;22.60;8.60;;;;;;;-128.00;-1.00;-1.00;131418;1286;1005012;-68
2023/06/23 06:50:08;;;;;;;25.10;8.00;;;;;;;-128.00;-1.00;-1.00;131455;1286;1002413;-68
2023/06/23 08:30:31;;;;;;;25.00;7.30;;;;;;;20.94;100.00;98637.02;131704;1312;558655;-68
2023/06/23 08:33:34;;;;;;;24.20;8.00;;;;;;;21.18;100.00;98649.44;130402;1294;5317440;-70
2023/06/23 08:36:36;;;;;;;23.70;8.20;;;;;;;21.09;100.00;98655.36;134469;1294;22542;-68
2023/06/23 08:39:39;;;;;;;24.10;8.90;;;;;;;21.07;100.00;98666.59;134468;1294;22551;-69
2023/06/23 08:42:41;;;;;;;24.30;8.50;;;;;;;21.05;100.00;98681.39;134489;1276;22560;-69
2023/06/23 08:45:44;;;;;;;28.50;8.00;;;;;;;21.15;100.00;98678.39;134821;1287;22543;-68
2023/06/23 08:48:46;;;;;;;29.50;9.50;;;;;;;21.17;100.00;98676.90;134807;1287;24503;-69
2023/06/23 08:51:49;;;;;;;26.40;8.50;;;;;;;21.33;100.00;98674.48;134828;1287;22562;-68
2023/06/23 08:54:51;;;;;;;24.70;8.20;;;;;;;21.41;100.00;98675.74;134824;1264;23146;-67
2023/06/23 08:58:00;;;;;;;26.20;8.70;;;;;;;21.45;100.00;98681.89;134809;1287;22578;-67
2023/06/23 09:01:02;;;;;;;29.00;9.00;;;;;;;21.67;100.00;98693.08;134838;1287;22576;-68
2023/06/23 09:04:05;;;;;;;26.90;9.00;;;;;;;21.96;100.00;98695.27;134827;1264;24348;-70
2023/06/23 09:07:07;;;;;;;31.30;9.40;;;;;;;22.10;100.00;98701.35;134840;1287;22566;-67
2023/06/23 09:22:42;;;;;;;21.00;6.40;;;;;;;22.48;100.00;98706.51;132584;1306;557639;-65
2023/06/23 09:25:45;;;;;;;26.10;6.60;;;;;;;23.05;100.00;98704.68;134562;1269;185805;-65
2023/06/23 09:28:49;;;;;;;24.90;7.80;;;;;;;22.91;100.00;98707.91;134741;1288;22544;-66
2023/06/23 09:31:51;;;;;;;24.60;7.30;;;;;;;23.10;100.00;98707.14;134711;1288;22672;-65
2023/06/23 09:34:54;;;;;;;27.60;7.60;;;;;;;23.24;100.00;98703.95;134710;1288;22588;-64
2023/06/23 09:37:56;;;;;;;24.80;7.60;;;;;;;23.41;100.00;98702.25;134713;1288;22556;-65
2023/06/23 09:40:59;;;;;;;27.30;8.10;;;;;;;23.69;100.00;98700.31;134724;1288;22546;-64
2023/06/23 09:44:02;;;;;;;24.70;7.90;;;;;;;23.63;100.00;98705.78;134719;1288;22552;-65
2023/06/23 09:47:05;;;;;;;25.50;8.10;;;;;;;23.84;100.00;98697.82;134733;1288;22686;-67
2023/06/23 09:50:07;;;;;;;27.70;9.20;;;;;;;23.93;100.00;98693.60;134719;1288;24382;-64
2023/06/23 09:53:10;;;;;;;24.30;7.80;;;;;;;24.09;100.00;98690.95;134731;1288;22537;-65
2023/06/23 09:56:13;;;;;;;24.80;8.00;;;;;;;24.27;100.00;98692.67;134733;1288;25446;-64
2023/06/23 10:12:12;;;;;;;26.10;8.30;;;;;;;25.31;100.00;98692.80;132390;1302;557645;-67
2023/06/23 10:15:15;;;;;;;26.10;8.20;;;;;;;25.83;100.00;98692.11;130662;1290;5318330;-67
2023/06/23 10:18:17;;;;;;;31.80;9.10;;;;;;;25.85;100.00;98695.13;134716;1289;25272;-66
2023/06/23 10:21:19;;;;;;;27.10;8.10;;;;;;;25.86;100.00;98694.19;134699;1289;25915;-65
2023/06/23 10:24:22;;;;;;;26.10;9.10;;;;;;;26.08;100.00;98693.83;134731;1289;22561;-67
2023/06/23 10:27:24;;;;;;;26.10;8.70;;;;;;;26.26;100.00;98694.94;134730;1289;22538;-70
2023/06/23 10:30:27;;;;;;;25.90;9.10;;;;;;;26.46;100.00;98691.48;134719;1266;24270;-68
2023/06/23 10:33:29;;;;;;;29.00;9.40;;;;;;;26.73;100.00;98700.41;134698;1289;22562;-70
2023/06/23 10:36:32;;;;;;;28.90;10.00;;;;;;;26.89;100.00;98701.69;134727;1289;22567;-68
2023/06/23 10:39:34;;;;;;;33.10;10.20;;;;;;;27.43;100.00;98691.51;134745;1289;23903;-69
2023/06/23 10:42:37;;;;;;;28.00;9.50;;;;;;;28.10;100.00;98687.42;134760;1289;22570;-68
2023/06/23 10:45:39;;;;;;;29.10;10.50;;;;;;;28.47;100.00;98690.94;134740;1289;22540;-68
2023/06/23 10:48:41;;;;;;;28.60;8.90;;;;;;;28.84;100.00;98695.30;134756;1289;22565;-68
2023/06/23 10:51:44;;;;;;;25.70;9.10;;;;;;;29.03;100.00;98700.05;134726;1289;22546;-69
2023/06/23 10:54:46;;;;;;;27.70;9.70;;;;;;;29.18;100.00;98695.92;134740;1289;22549;-67
2023/06/23 10:57:49;;;;;;;25.40;8.60;;;;;;;29.17;100.00;98690.86;134725;1289;22552;-66
2023/06/23 11:00:51;;;;;;;27.10;9.50;;;;;;;-2.19;79.80;78954.86;134025;1289;1002120;-66
2023/06/23 11:03:54;;;;;;;25.80;9.00;;;;;;;29.50;100.00;98696.23;134726;1289;24487;-68
2023/06/23 11:06:56;;;;;;;25.20;8.70;;;;;;;29.53;100.00;98696.00;134740;1289;22566;-69
2023/06/23 11:09:59;;;;;;;28.50;9.80;;;;;;;29.72;100.00;98697.77;134605;1289;25239;-66
2023/06/23 11:13:01;;;;;;;24.90;9.80;;;;;;;29.74;100.00;98696.33;135365;1282;24297;-68
2023/06/23 11:16:04;;;;;;;26.90;9.80;;;;;;;29.90;100.00;98698.84;135267;1282;22788;-68
2023/06/23 11:19:06;;;;;;;28.10;9.40;;;;;;;30.10;100.00;98704.09;135110;1282;22585;-65
2023/06/23 11:22:08;;;;;;;23.70;9.20;;;;;;;30.16;100.00;98706.44;135227;1281;25460;-68
2023/06/23 11:25:11;;;;;;;26.90;8.90;;;;;;;30.21;100.00;98702.47;135365;1260;24217;-69
2023/06/23 11:28:13;;;;;;;28.30;10.80;;;;;;;30.48;100.00;98696.48;135336;1282;22544;-68
2023/06/23 11:31:16;;;;;;;25.80;9.20;;;;;;;30.88;100.00;98698.34;135328;1282;22544;-67
2023/06/23 11:34:20;;;;;;;24.20;9.30;;;;;;;30.83;100.00;98698.11;135378;1281;22536;-67
2023/06/23 11:37:22;;;;;;;23.70;9.20;;;;;;;30.84;100.00;98700.48;135379;1282;25480;-68
2023/06/23 11:40:25;;;;;;;26.40;9.80;;;;;;;30.83;100.00;98702.66;135342;1281;22552;-69
2023/06/23 11:43:27;;;;;;;26.50;9.90;;;;;;;30.98;100.00;98699.26;135340;1282;22577;-68
2023/06/23 11:46:29;;;;;;;25.80;9.90;;;;;;;31.10;100.00;98694.98;135326;1282;25328;-67
2023/06/23 11:49:32;;;;;;;26.10;9.70;;;;;;;31.19;100.00;98697.33;135359;1259;25484;-69
2023/06/23 11:52:34;;;;;;;22.90;9.10;;;;;;;30.90;100.00;98690.08;135303;1282;22540;-68
2023/06/23 11:55:37;;;;;;;26.40;9.40;;;;;;;30.57;100.00;98686.63;135317;1282;22537;-70
2023/06/23 11:58:39;;;;;;;26.10;10.10;;;;;;;30.56;100.00;98682.05;135333;1263;22549;-67
2023/06/23 12:01:41;;;;;;;28.80;10.40;;;;;;;30.84;100.00;98682.06;135333;1281;22576;-68
2023/06/23 12:04:44;;;;;;;25.00;10.40;;;;;;;30.62;100.00;98677.89;135416;1281;22539;-69
2023/06/23 12:07:47;;;;;;;22.70;9.80;;;;;;;30.42;100.00;98682.66;135421;1281;22532;-70
2023/06/23 12:10:49;;;;;;;26.50;10.60;;;;;;;30.38;100.00;98677.09;135458;1281;22522;-68
2023/06/23 12:13:51;;;;;;;26.10;10.50;;;;;;;30.52;100.00;98674.90;135445;1280;22565;-71
2023/06/23 12:16:54;;;;;;;25.60;10.80;;;;;;;30.20;100.00;98677.58;135351;1281;25232;-67
2023/06/23 12:19:56;;;;;;;26.50;10.90;;;;;;;29.92;100.00;98679.77;135408;1281;22526;-68
2023/06/23 12:22:59;;;;;;;22.70;10.30;;;;;;;29.76;100.00;98673.49;135441;1281;22528;-67
2023/06/23 12:26:01;;;;;;;27.00;10.90;;;;;;;29.82;100.00;98672.95;135409;1281;22656;-67
2023/06/23 12:29:03;;;;;;;26.20;11.20;;;;;;;29.89;100.00;98671.16;135444;1281;24869;-67
2023/06/23 12:32:07;;;;;;;27.20;12.00;;;;;;;29.93;100.00;98664.66;135424;1260;22556;-70
2023/06/23 12:35:09;;;;;;;28.70;12.10;;;;;;;30.20;100.00;98670.01;135462;1281;22545;-66
2023/06/23 12:38:12;;;;;;;27.60;11.40;;;;;;;30.47;100.00;98673.19;135451;1281;22677;-68
2023/06/23 12:41:15;;;;;;;26.20;12.20;;;;;;;30.59;100.00;98674.73;135488;1281;24046;-68
2023/06/23 12:44:20;;;;;;;28.40;11.90;;;;;;;30.65;100.00;98677.91;135418;1281;22534;-66
2023/06/23 12:47:22;;;;;;;28.80;12.10;;;;;;;30.60;100.00;98678.34;135484;1280;24091;-68
2023/06/23 12:50:25;;;;;;;25.40;11.70;;;;;;;30.49;100.00;98672.33;135462;1281;22543;-69
2023/06/23 12:53:27;;;;;;;29.20;13.50;;;;;;;30.20;100.00;98671.23;135496;1280;22533;-70
2023/06/23 12:56:30;;;;;;;27.20;12.80;;;;;;;30.10;100.00;98666.15;135446;1281;22545;-68
2023/06/23 12:59:32;;;;;;;27.40;12.70;;;;;;;30.06;100.00;98665.00;135447;1281;22543;-69
2023/06/23 13:02:34;;;;;;;26.70;12.50;;;;;;;30.20;100.00;98663.09;135699;1275;22727;-70
2023/06/23 13:05:37;;;;;;;27.10;12.90;;;;;;;30.26;100.00;98655.09;135739;1278;25298;-68
2023/06/23 13:08:40;;;;;;;25.80;12.30;;;;;;;30.47;100.00;98651.17;135753;1278;22530;-67
2023/06/23 13:11:42;;;;;;;30.10;11.90;;;;;;;30.88;100.00;98655.16;135714;1278;22660;-67
2023/06/23 13:14:45;;;;;;;26.60;12.20;;;;;;;31.02;100.00;98649.13;135752;1278;22531;-68
2023/06/23 13:17:47;;;;;;;26.10;11.80;;;;;;;31.11;100.00;98652.48;135778;1278;22533;-67
2023/06/23 13:20:49;;;;;;;27.30;12.00;;;;;;;31.33;100.00;98653.96;135774;1259;22632;-67
2023/06/23 13:23:52;;;;;;;27.40;13.00;;;;;;;31.28;100.00;98667.55;135731;1278;24833;-66
2023/06/23 13:26:54;;;;;;;27.10;13.30;;;;;;;31.07;100.00;98676.73;135774;1256;22526;-67
2023/06/23 13:29:57;;;;;;;27.50;12.10;;;;;;;31.13;100.00;98677.34;135772;1278;25327;-66
2023/06/23 13:33:00;;;;;;;24.30;12.80;;;;;;;31.07;100.00;98681.35;135778;1278;22553;-70
2023/06/23 13:36:02;;;;;;;28.20;13.00;;;;;;;30.69;100.00;98684.80;135798;1278;24007;-69
2023/06/23 13:39:04;;;;;;;28.10;12.70;;;;;;;30.57;100.00;98687.54;135766;1278;22532;-69
2023/06/23 13:42:07;;;;;;;26.30;12.30;;;;;;;30.68;100.00;98691.86;135755;1278;22543;-67
2023/06/23 13:45:10;;;;;;;29.00;12.80;;;;;;;30.80;100.00;98689.20;135773;1278;22530;-69
2023/06/23 13:48:12;;;;;;;26.20;12.50;;;;;;;30.91;100.00;98685.55;135770;1278;24206;-68
2023/06/23 13:51:15;;;;;;;25.90;11.60;;;;;;;30.99;100.00;98681.71;135725;1278;22575;-69
2023/06/23 13:54:17;;;;;;;24.40;12.10;;;;;;;31.06;100.00;98686.92;135771;1278;22551;-69
2023/06/23 13:57:19;;;;;;;28.10;12.50;;;;;;;31.09;100.00;98689.66;135744;1278;22534;-66
2023/06/23 14:00:25;;;;;;;23.90;12.20;;;;;;;31.09;100.00;98687.91;135713;1278;22516;-68
2023/06/23 14:03:27;;;;;;;28.30;13.10;;;;;;;31.20;100.00;98693.21;135763;1278;22519;-69
2023/06/23 14:06:30;;;;;;;24.00;12.40;;;;;;;31.60;100.00;98696.39;135723;1278;22524;-69
2023/06/23 14:09:32;;;;;;;27.70;12.20;;;;;;;31.90;100.00;98700.44;135675;1277;22664;-68
2023/06/23 14:12:34;;;;;;;26.40;12.30;;;;;;;32.05;100.00;98709.03;135729;1278;22533;-68
2023/06/23 14:15:37;;;;;;;27.40;12.50;;;;;;;32.17;100.00;98716.98;135742;1278;25331;-68
2023/06/23 14:18:39;;;;;;;26.80;12.30;;;;;;;32.25;100.00;98725.22;135747;1278;25464;-68
2023/06/23 14:21:43;;;;;;;28.40;12.20;;;;;;;32.36;100.00;98734.14;135768;1278;22533;-69
2023/06/23 14:24:45;;;;;;;26.40;11.80;;;;;;;32.46;100.00;98727.10;135716;1257;24238;-71
2023/06/23 14:27:48;;;;;;;25.50;12.20;;;;;;;32.63;100.00;98722.17;135705;1278;22536;-70
2023/06/23 14:30:50;;;;;;;27.50;11.70;;;;;;;32.58;100.00;98722.08;135725;1259;22555;-69
2023/06/23 14:33:53;;;;;;;23.70;11.20;;;;;;;32.66;100.00;98710.59;135777;1269;22598;-70
2023/06/23 14:36:56;;;;;;;25.30;11.60;;;;;;;32.40;100.00;98705.05;135728;1278;22540;-71
2023/06/23 14:39:58;;;;;;;26.60;11.50;;;;;;;32.40;100.00;98701.40;135716;1278;22564;-71
2023/06/23 14:43:00;;;;;;;26.10;12.10;;;;;;;32.51;100.00;98705.38;135744;1278;24404;-69
2023/06/23 14:46:03;;;;;;;24.30;11.20;;;;;;;32.86;100.00;98711.37;135683;1278;25513;-68
2023/06/23 14:49:05;;;;;;;26.00;11.70;;;;;;;32.74;100.00;98714.71;135797;1278;24424;-70
2023/06/23 14:52:08;;;;;;;24.40;11.50;;;;;;;32.62;100.00;98709.79;135709;1278;22544;-70
2023/06/23 14:55:10;;;;;;;23.80;11.60;;;;;;;32.42;100.00;98710.52;135662;1278;22552;-68
2023/06/23 14:58:13;;;;;;;25.50;11.90;;;;;;;32.65;100.00;98704.48;135768;1278;22528;-70
2023/06/23 15:01:15;;;;;;;27.80;12.40;;;;;;;32.82;100.00;98702.06;135706;1259;22992;-69
2023/06/23 15:04:17;;;;;;;30.20;13.80;;;;;;;32.98;100.00;98713.54;135718;1278;25426;-68
2023/06/23 15:07:20;;;;;;;25.20;12.00;;;;;;;33.07;100.00;98723.83;135712;1278;22520;-71
2023/06/23 15:10:22;;;;;;;28.60;11.70;;;;;;;33.12;100.00;98712.89;135769;1278;22567;-69
2023/06/23 15:13:25;;;;;;;28.50;12.30;;;;;;;33.21;100.00;98702.67;135755;1278;22548;-67
2023/06/23 15:16:27;;;;;;;25.70;11.60;;;;;;;33.43;100.00;98690.46;135747;1278;22523;-69
2023/06/23 15:19:30;;;;;;;27.40;11.50;;;;;;;33.52;100.00;98683.05;135790;1278;22723;-69
2023/06/23 15:22:32;;;;;;;24.40;10.90;;;;;;;33.91;100.00;98683.56;135706;1264;23230;-68
2023/06/23 15:25:35;;;;;;;24.40;10.70;;;;;;;34.18;100.00;98673.98;135575;1255;22568;-68
2023/06/23 15:28:38;;;;;;;25.80;12.30;;;;;;;34.60;100.00;98669.89;135633;1278;22574;-65
2023/06/23 15:31:40;;;;;;;25.50;11.80;;;;;;;34.79;100.00;98672.27;135649;1278;22543;-68
2023/06/23 15:34:43;;;;;;;24.30;11.00;;;;;;;34.85;100.00;98662.58;135628;1278;22539;-70
2023/06/23 15:37:47;;;;;;;26.60;11.80;;;;;;;35.01;100.00;98662.91;135663;1278;22529;-70
2023/06/23 15:40:49;;;;;;;22.40;10.70;;;;;;;35.43;100.00;98664.43;135679;1278;22530;-68
2023/06/23 15:43:52;;;;;;;31.80;13.70;;;;;;;36.06;100.00;98667.17;135652;1278;22526;-68
2023/06/23 15:46:55;;;;;;;25.90;10.60;;;;;;;36.49;100.00;98678.59;135665;1278;22659;-69
2023/06/23 15:49:57;;;;;;;22.60;11.00;;;;;;;36.06;100.00;98682.06;135610;1278;22526;-70
2023/06/23 15:52:59;;;;;;;27.00;12.30;;;;;;;35.26;100.00;98694.91;135637;1278;22533;-69
2023/06/23 15:56:02;;;;;;;23.30;10.90;;;;;;;34.66;100.00;98699.44;135686;1278;22516;-73
2023/06/23 15:59:06;;;;;;;28.10;11.50;;;;;;;34.40;100.00;98698.63;135668;1278;22565;-68
2023/06/23 16:02:09;;;;;;;30.70;12.20;;;;;;;34.10;100.00;98695.36;135289;1278;22541;-70